Antlers Park, Minnesota
Current Conditions -  °F | °C
As of 10:48 AM on Saturday 25 Oct 2014 (Local Time) from KLVN Reporting Station
Clear Clear  
Wind Chill: 14°   Ceiling: Unl
Heat Index: 14°   Visibility: 10mi
Dew Point:   Wind: 10mph
Humidity: 41%   Direction: 300°WNW
Pressure: 30.06"   Gusts: 21mph
Location:  44.6349°N, 93.283°W
Report Text: KLVN 251548Z AUTO 30009G18KT 10SM CLR 14/01 A3006 RMK AO2
Loading
Personal Weather Stations






























Interactive Weather Map New forecast layout! Learn more

10-Day Weather Forecast

Advertisements
Track Severe Weather on mobile